Time;durP1;ratioP1;P1;durP2;ratioP2;P2;SDS_P1;SDS_P2;PMS_P1;PMS_P2;Temp;Humidity;BMP_temperature;BMP_pressure;BME280_temperature;BME280_humidity;BME280_pressure;Samples;Min_cycle;Max_cycle;Signal;HPM_P1;HPM_P2
2023/04/15 00:01:05;;;;;;;10.70;4.50;;;;;;;6.77;76.01;99572.81;5058721;28;20091;-51
2023/04/15 00:03:33;;;;;;;6.50;4.13;;;;;;;6.75;77.11;99574.56;5052821;28;20132;-56
2023/04/15 00:06:01;;;;;;;6.63;4.45;;;;;;;6.77;77.38;99580.56;5055907;28;20059;-52
2023/04/15 00:08:28;;;;;;;6.05;4.05;;;;;;;6.74;77.61;99576.25;5062753;28;20101;-57
2023/04/15 00:10:55;;;;;;;9.50;5.22;;;;;;;6.77;77.20;99580.56;5052510;28;20067;-54
2023/04/15 00:13:22;;;;;;;5.78;3.45;;;;;;;6.77;76.14;99583.13;5054981;28;20377;-55
2023/04/15 00:15:49;;;;;;;5.22;3.22;;;;;;;6.75;75.79;99582.28;5053240;28;20044;-57
2023/04/15 00:18:15;;;;;;;7.30;3.65;;;;;;;6.75;76.67;99582.28;5059896;28;20102;-55
2023/04/15 00:20:42;;;;;;;10.45;4.47;;;;;;;6.76;77.19;99592.53;5051735;28;20500;-56
2023/04/15 00:23:08;;;;;;;7.55;4.93;;;;;;;6.77;76.47;99589.16;5057416;28;20133;-52
2023/04/15 00:25:35;;;;;;;8.20;4.32;;;;;;;6.77;75.72;99584.00;5063726;28;20074;-51
2023/04/15 00:28:02;;;;;;;7.65;4.18;;;;;;;6.78;77.05;99587.41;5052364;28;20695;-53
2023/04/15 00:30:30;;;;;;;8.60;4.80;;;;;;;6.77;77.15;99586.56;5052821;28;20106;-53
2023/04/15 00:32:57;;;;;;;8.80;4.63;;;;;;;6.80;77.05;99585.72;5056930;28;20052;-54
2023/04/15 00:35:24;;;;;;;8.20;5.25;;;;;;;6.79;77.47;99586.59;5054174;28;20139;-56
2023/04/15 00:37:50;;;;;;;9.00;5.28;;;;;;;6.80;76.76;99596.84;5056863;28;20373;-53
2023/04/15 00:40:19;;;;;;;7.88;4.75;;;;;;;6.83;76.99;99596.03;5056975;28;20049;-55
2023/04/15 00:42:46;;;;;;;8.13;4.45;;;;;;;6.83;77.41;99596.03;5035867;28;20135;-57
2023/04/15 00:45:13;;;;;;;10.43;4.57;;;;;;;6.84;76.34;99608.06;5056851;28;20568;-50
2023/04/15 00:47:41;;;;;;;9.38;4.72;;;;;;;6.84;76.15;99608.06;5054454;28;20512;-58
2023/04/15 00:50:09;;;;;;;7.80;3.40;;;;;;;6.85;76.69;99614.91;5048117;28;20052;-50
2023/04/15 00:52:36;;;;;;;10.98;4.40;;;;;;;6.87;76.57;99612.34;5017228;28;20154;-55
2023/04/15 00:55:04;;;;;;;6.03;3.72;;;;;;;6.87;77.63;99623.53;5037822;28;20130;-54
2023/04/15 00:57:31;;;;;;;6.40;3.92;;;;;;;6.88;76.85;99625.22;5033800;28;20122;-51
2023/04/15 00:59:57;;;;;;;7.10;3.53;;;;;;;6.87;76.15;99617.50;5035702;28;20103;-53
2023/04/15 01:02:24;;;;;;;7.85;3.88;;;;;;;6.89;75.86;99632.09;5030830;28;20112;-53
2023/04/15 01:04:51;;;;;;;7.85;4.43;;;;;;;6.90;76.33;99633.84;5038766;28;20049;-52
2023/04/15 01:07:18;;;;;;;6.43;3.55;;;;;;;6.88;76.88;99629.50;5039145;28;20049;-55
2023/04/15 01:09:45;;;;;;;7.03;4.57;;;;;;;6.89;76.07;99637.25;5037994;28;20467;-50
2023/04/15 01:12:14;;;;;;;5.20;2.95;;;;;;;6.86;77.45;99641.53;5031321;28;20049;-55
2023/04/15 01:14:41;;;;;;;4.90;2.25;;;;;;;6.86;77.12;99647.53;5039042;28;20299;-51
2023/04/15 01:17:08;;;;;;;5.05;2.38;;;;;;;6.84;77.30;99646.66;5038235;28;20076;-56
2023/04/15 01:19:36;;;;;;;5.07;3.13;;;;;;;6.84;77.07;99654.38;5035329;28;20053;-55
2023/04/15 01:22:02;;;;;;;7.90;3.63;;;;;;;6.84;78.09;99659.53;5035391;28;20076;-57
2023/04/15 01:24:31;;;;;;;6.93;3.92;;;;;;;6.84;77.40;99669.84;5034377;28;20052;-53
2023/04/15 01:26:58;;;;;;;6.93;3.80;;;;;;;6.84;76.99;99666.38;5037328;28;20102;-55
2023/04/15 01:29:26;;;;;;;9.73;4.05;;;;;;;6.82;77.58;99676.66;5035876;28;20049;-55
2023/04/15 01:31:54;;;;;;;6.40;4.38;;;;;;;6.80;77.16;99679.22;5031188;28;20049;-55
2023/04/15 01:34:22;;;;;;;7.53;4.88;;;;;;;6.80;78.25;99680.97;5037087;28;20126;-51
2023/04/15 01:36:48;;;;;;;6.32;4.53;;;;;;;6.77;78.33;99683.50;5034520;28;20124;-50
2023/04/15 01:39:15;;;;;;;8.68;4.80;;;;;;;6.76;78.35;99686.94;5031993;28;20053;-52
2023/04/15 01:41:41;;;;;;;10.07;5.22;;;;;;;6.76;77.61;99681.78;5036358;28;20053;-52
2023/04/15 01:44:08;;;;;;;11.55;5.07;;;;;;;6.77;77.85;99688.66;5043248;28;20597;-59
2023/04/15 01:46:35;;;;;;;13.43;6.45;;;;;;;6.75;76.88;99696.38;5031222;28;20156;-52
2023/04/15 01:49:02;;;;;;;12.52;6.28;;;;;;;6.76;78.60;99707.53;5039787;28;20075;-49
2023/04/15 01:51:29;;;;;;;11.77;5.45;;;;;;;6.76;78.65;99707.53;5030388;28;20408;-55
2023/04/15 01:53:55;;;;;;;13.27;6.88;;;;;;;6.74;77.79;99702.38;5035361;28;20111;-55
2023/04/15 01:56:24;;;;;;;14.60;6.90;;;;;;;6.75;78.31;99705.81;5041197;28;20072;-54
2023/04/15 01:58:51;;;;;;;13.25;6.88;;;;;;;6.76;78.42;99702.38;5052474;28;20144;-52
2023/04/15 02:01:18;;;;;;;13.57;7.07;;;;;;;6.72;77.37;99706.63;5042901;28;20059;-55
2023/04/15 02:03:46;;;;;;;9.32;5.80;;;;;;;6.69;78.24;99709.22;5060198;28;20068;-58
2023/04/15 02:06:13;;;;;;;12.68;6.78;;;;;;;6.69;77.29;99715.19;5061973;28;20054;-53
2023/04/15 02:08:40;;;;;;;8.65;5.68;;;;;;;6.67;78.70;99722.06;5059112;28;20040;-55
2023/04/15 02:11:07;;;;;;;13.50;7.03;;;;;;;6.68;77.86;99726.34;5057839;28;20080;-54
2023/04/15 02:13:33;;;;;;;14.23;7.03;;;;;;;6.65;79.39;99731.47;5063959;28;20080;-51
2023/04/15 02:16:00;;;;;;;10.10;4.63;;;;;;;6.66;77.69;99737.50;5061381;28;20967;-54
2023/04/15 02:18:27;;;;;;;10.60;5.72;;;;;;;6.64;78.66;99736.59;5066011;28;20083;-56
2023/04/15 02:20:56;;;;;;;12.48;5.65;;;;;;;6.64;78.40;99740.03;5056364;28;20637;-50
2023/04/15 02:23:23;;;;;;;18.17;6.93;;;;;;;6.63;78.22;99742.59;5043797;28;20525;-56
2023/04/15 02:25:49;;;;;;;14.10;6.18;;;;;;;6.65;79.14;99740.88;5055906;28;20140;-56
2023/04/15 02:28:20;;;;;;;14.18;6.97;;;;;;;6.62;77.98;99749.44;5059863;28;20041;-56
2023/04/15 02:30:49;;;;;;;10.07;4.50;;;;;;;6.64;78.47;99750.34;5055773;28;20484;-53
2023/04/15 02:33:16;;;;;;;12.90;6.70;;;;;;;6.63;79.15;99751.19;5057347;28;20133;-57
2023/04/15 02:35:44;;;;;;;9.65;5.72;;;;;;;6.63;79.01;99756.34;5062011;28;20044;-49
2023/04/15 02:38:11;;;;;;;15.27;7.03;;;;;;;6.63;79.44;99751.19;5054537;28;20183;-56
2023/04/15 02:40:37;;;;;;;12.48;6.55;;;;;;;6.62;78.38;99754.59;5032517;28;20049;-50
2023/04/15 02:43:05;;;;;;;16.05;7.05;;;;;;;6.61;78.64;99760.59;5038140;28;20151;-51
2023/04/15 02:45:32;;;;;;;13.18;5.60;;;;;;;6.64;78.31;99765.78;5033670;28;20440;-51
2023/04/15 02:48:04;;;;;;;17.13;7.63;;;;;;;6.65;78.20;99769.19;5016371;28;20053;-51
2023/04/15 02:50:31;;;;;;;17.95;9.18;;;;;;;6.66;79.21;99769.22;5046670;28;20056;-56
2023/04/15 02:53:00;;;;;;;12.23;6.75;;;;;;;6.66;77.90;99774.38;5057049;28;20048;-54
2023/04/15 02:55:27;;;;;;;10.75;5.95;;;;;;;6.61;79.98;99770.03;5054140;28;20175;-56
2023/04/15 02:57:54;;;;;;;11.00;5.70;;;;;;;6.61;79.37;99776.03;5057262;28;20052;-56
2023/04/15 03:00:21;;;;;;;12.95;5.45;;;;;;;6.63;78.81;99784.66;5059107;28;20068;-54
2023/04/15 03:02:50;;;;;;;12.77;6.78;;;;;;;6.61;79.14;99781.19;5041348;28;20463;-54
2023/04/15 03:05:18;;;;;;;13.30;6.63;;;;;;;6.64;79.82;99795.78;5061304;28;20078;-52
2023/04/15 03:07:44;;;;;;;11.75;5.72;;;;;;;6.65;78.39;99797.50;5032664;28;20076;-56
2023/04/15 03:10:11;;;;;;;16.90;7.38;;;;;;;6.66;78.50;99805.25;5059757;28;20044;-52
2023/04/15 03:12:38;;;;;;;12.20;6.18;;;;;;;6.66;78.71;99805.25;5055999;28;20076;-53
2023/04/15 03:15:05;;;;;;;17.25;7.28;;;;;;;6.65;79.40;99808.69;5053815;28;20094;-50
2023/04/15 03:17:32;;;;;;;11.27;5.78;;;;;;;6.67;78.67;99819.88;5057939;28;20574;-54
2023/04/15 03:20:01;;;;;;;14.20;5.18;;;;;;;6.71;79.39;99822.44;5058230;28;20447;-51
2023/04/15 03:22:28;;;;;;;12.10;6.75;;;;;;;6.71;78.64;99822.44;5059296;28;20111;-54
2023/04/15 03:24:54;;;;;;;13.68;6.88;;;;;;;6.74;79.69;99832.78;5038164;28;20044;-54
2023/04/15 03:27:21;;;;;;;8.00;4.20;;;;;;;6.72;79.03;99834.50;5036945;28;20588;-54
2023/04/15 03:29:48;;;;;;;12.02;6.40;;;;;;;6.68;79.02;99831.88;5054531;28;20071;-50
2023/04/15 03:32:15;;;;;;;10.15;4.95;;;;;;;6.70;78.68;99842.19;5062564;28;20060;-58
2023/04/15 03:34:42;;;;;;;8.95;4.47;;;;;;;6.68;79.96;99839.59;5060709;28;20064;-53
2023/04/15 03:37:09;;;;;;;11.70;5.88;;;;;;;6.68;79.80;99844.75;5059968;28;20072;-55
2023/04/15 03:39:35;;;;;;;11.77;5.97;;;;;;;6.69;79.03;99846.47;5060403;28;20040;-53
2023/04/15 03:42:02;;;;;;;9.85;5.40;;;;;;;6.69;78.71;99850.78;5058644;28;20073;-55
2023/04/15 03:44:29;;;;;;;9.48;4.50;;;;;;;6.66;79.88;99851.56;5057369;28;20689;-54
2023/04/15 03:46:56;;;;;;;10.95;4.53;;;;;;;6.71;79.62;99845.59;5052398;28;20053;-53
2023/04/15 03:49:23;;;;;;;10.38;5.00;;;;;;;6.72;80.26;99855.09;5056180;28;20128;-57
2023/04/15 03:51:50;;;;;;;7.68;3.88;;;;;;;6.71;79.59;99853.34;5034887;28;20102;-50
2023/04/15 03:54:16;;;;;;;11.43;5.75;;;;;;;6.69;80.58;99859.34;5036197;28;20585;-53
2023/04/15 03:56:43;;;;;;;8.40;4.40;;;;;;;6.66;80.61;99859.28;5035305;28;20080;-55
2023/04/15 03:59:10;;;;;;;7.68;3.55;;;;;;;6.69;79.87;99872.22;5036918;28;20615;-55
2023/04/15 04:01:36;;;;;;;11.82;5.72;;;;;;;6.67;78.75;99867.91;5056559;28;20145;-54
2023/04/15 04:04:03;;;;;;;7.85;3.75;;;;;;;6.65;80.25;99870.44;5056243;28;20396;-54
2023/04/15 04:06:30;;;;;;;9.50;3.90;;;;;;;6.66;79.14;99877.31;5052472;28;20499;-54
2023/04/15 04:08:57;;;;;;;9.05;4.45;;;;;;;6.67;79.19;99876.50;5050058;28;20504;-57
2023/04/15 04:11:23;;;;;;;9.77;4.50;;;;;;;6.67;80.12;99879.06;5055342;28;20485;-53
2023/04/15 04:13:50;;;;;;;9.57;4.75;;;;;;;6.64;79.62;99879.03;5046772;28;20176;-54
2023/04/15 04:16:16;;;;;;;4.72;2.92;;;;;;;6.66;78.88;99889.34;5037194;28;20075;-55
2023/04/15 04:18:43;;;;;;;7.47;4.30;;;;;;;6.66;80.29;99897.91;5052767;28;20083;-55
2023/04/15 04:21:10;;;;;;;8.32;3.10;;;;;;;6.70;79.87;99903.97;5042237;28;20404;-53
2023/04/15 04:23:37;;;;;;;7.47;3.80;;;;;;;6.65;79.66;99901.34;5029047;28;20049;-51
2023/04/15 04:26:03;;;;;;;8.13;4.90;;;;;;;6.66;80.08;99903.06;5032910;28;20135;-50
2023/04/15 04:28:30;;;;;;;5.82;3.45;;;;;;;6.60;79.98;99907.28;5038135;28;20527;-55
2023/04/15 04:30:56;;;;;;;6.35;3.33;;;;;;;6.61;80.32;99904.72;5031120;28;20522;-53
2023/04/15 04:33:23;;;;;;;4.78;2.63;;;;;;;6.60;79.54;99908.16;5034103;28;20065;-53
2023/04/15 04:35:50;;;;;;;9.80;4.05;;;;;;;6.60;79.21;99913.28;5049280;28;20102;-53
2023/04/15 04:38:17;;;;;;;7.43;4.00;;;;;;;6.58;79.82;99920.13;5056120;28;20570;-53
2023/04/15 04:40:43;;;;;;;4.25;3.28;;;;;;;6.54;79.36;99918.34;5056614;28;20093;-48
2023/04/15 04:43:10;;;;;;;3.80;2.83;;;;;;;6.54;80.42;99920.94;5053999;28;20064;-49
2023/04/15 04:45:36;;;;;;;7.65;4.60;;;;;;;6.57;79.77;99928.69;5049463;28;20119;-52
2023/04/15 04:48:05;;;;;;;5.35;3.08;;;;;;;6.57;79.38;99933.84;5037998;28;20056;-58
2023/04/15 04:50:33;;;;;;;5.45;3.30;;;;;;;6.59;79.99;99933.88;5035315;28;20144;-52
2023/04/15 04:53:00;;;;;;;4.18;2.75;;;;;;;6.53;80.34;99937.22;5039027;28;20137;-53
2023/04/15 04:55:27;;;;;;;3.58;2.42;;;;;;;6.55;79.12;99950.97;5038433;28;20106;-57
2023/04/15 04:57:53;;;;;;;4.75;3.20;;;;;;;6.52;79.16;99946.66;5055946;28;20191;-53
2023/04/15 05:00:20;;;;;;;5.13;3.03;;;;;;;6.52;79.67;99954.38;5052577;28;20116;-50
2023/04/15 05:02:47;;;;;;;5.53;3.65;;;;;;;6.55;79.69;99961.25;5053115;28;20044;-54
2023/04/15 05:05:14;;;;;;;5.65;3.08;;;;;;;6.58;79.53;99971.59;5056630;28;20506;-56
2023/04/15 05:07:40;;;;;;;7.15;3.97;;;;;;;6.57;80.11;99980.16;5060354;28;20079;-52
2023/04/15 05:10:08;;;;;;;5.88;3.60;;;;;;;6.56;80.33;99983.59;5058182;28;20049;-55
2023/04/15 05:12:36;;;;;;;6.65;3.90;;;;;;;6.56;80.64;99988.75;5058690;28;20049;-57
2023/04/15 05:15:04;;;;;;;8.50;4.97;;;;;;;6.57;78.86;99995.59;5038199;28;20125;-50
2023/04/15 05:17:32;;;;;;;6.28;3.20;;;;;;;6.60;79.89;100008.53;5053219;28;20492;-51
2023/04/15 05:19:58;;;;;;;7.43;3.83;;;;;;;6.59;79.03;100009.38;5055517;28;20087;-54
2023/04/15 05:22:25;;;;;;;7.95;3.97;;;;;;;6.58;80.61;100017.06;5060862;28;20053;-53
2023/04/15 05:24:52;;;;;;;9.05;5.15;;;;;;;6.60;79.88;100020.50;5056523;28;20052;-54
2023/04/15 05:27:18;;;;;;;11.10;5.32;;;;;;;6.63;79.39;100025.69;5060216;28;20048;-55
2023/04/15 05:29:45;;;;;;;11.40;5.00;;;;;;;6.63;79.43;100031.72;5062799;28;20312;-54
2023/04/15 05:32:11;;;;;;;10.93;5.22;;;;;;;6.59;80.16;100040.25;5061266;28;20091;-54
2023/04/15 05:34:38;;;;;;;8.02;4.05;;;;;;;6.57;80.48;100047.06;5056760;28;20500;-54
2023/04/15 05:37:05;;;;;;;10.63;4.80;;;;;;;6.60;80.30;100047.13;5055933;28;20087;-53
2023/04/15 05:39:31;;;;;;;7.40;3.67;;;;;;;6.56;79.69;100051.34;5059673;28;20076;-54
2023/04/15 05:41:59;;;;;;;10.32;5.03;;;;;;;6.58;79.45;100053.94;5057367;28;20638;-54
2023/04/15 05:44:25;;;;;;;10.30;5.00;;;;;;;6.60;80.13;100057.41;5060219;28;20048;-49
2023/04/15 05:46:52;;;;;;;9.75;4.85;;;;;;;6.60;79.46;100062.56;5063609;28;20076;-49
2023/04/15 05:49:18;;;;;;;9.90;4.78;;;;;;;6.65;79.43;100071.19;5061284;28;20485;-53
2023/04/15 05:51:46;;;;;;;10.55;5.88;;;;;;;6.67;79.36;100077.25;5063534;28;20131;-53
2023/04/15 05:54:13;;;;;;;11.57;5.60;;;;;;;6.69;80.06;100078.13;5064431;28;20080;-48
2023/04/15 05:56:40;;;;;;;9.65;3.22;;;;;;;6.68;80.10;100085.81;5064973;28;20656;-52
2023/04/15 05:59:06;;;;;;;16.48;5.88;;;;;;;6.71;79.46;100096.16;5061750;28;20052;-55
2023/04/15 06:01:33;;;;;;;12.52;6.25;;;;;;;6.73;78.39;100094.50;5059901;28;20094;-50
2023/04/15 06:04:00;;;;;;;5.47;2.78;;;;;;;6.71;78.84;100105.59;5061421;28;20460;-52
2023/04/15 06:06:27;;;;;;;15.93;5.25;;;;;;;6.71;79.14;100110.72;5057147;28;20053;-51
2023/04/15 06:08:54;;;;;;;10.95;5.00;;;;;;;6.74;79.18;100100.47;5058510;28;20083;-50
2023/04/15 06:11:21;;;;;;;9.60;5.25;;;;;;;6.74;79.93;100110.78;5059424;28;20044;-52
2023/04/15 06:13:48;;;;;;;11.25;5.03;;;;;;;6.79;78.72;100119.47;5064387;28;20070;-54
2023/04/15 06:16:14;;;;;;;11.77;6.05;;;;;;;6.83;79.00;100118.66;5056732;28;20556;-53
2023/04/15 06:18:41;;;;;;;12.95;5.60;;;;;;;6.85;79.69;100127.25;5058710;28;20077;-52
2023/04/15 06:21:08;;;;;;;12.20;6.03;;;;;;;6.90;79.65;100143.66;5059246;28;20103;-51
2023/04/15 06:23:35;;;;;;;14.45;5.88;;;;;;;6.91;78.35;100147.94;5059553;28;20087;-55
2023/04/15 06:26:02;;;;;;;11.50;4.88;;;;;;;6.92;78.93;100152.25;5054637;28;20466;-53
2023/04/15 06:28:29;;;;;;;11.52;5.35;;;;;;;6.95;79.77;100156.56;5064178;28;20098;-55
2023/04/15 06:30:56;;;;;;;13.75;7.50;;;;;;;6.99;78.29;100162.63;5056729;28;20057;-54
2023/04/15 06:33:22;;;;;;;12.38;6.05;;;;;;;7.02;79.24;100162.66;5055273;28;20052;-54
2023/04/15 06:35:49;;;;;;;9.82;5.43;;;;;;;7.04;79.72;100161.84;5055361;28;20135;-53
2023/04/15 06:38:16;;;;;;;13.63;6.68;;;;;;;7.08;78.83;100170.47;5058326;28;20076;-52
2023/04/15 06:40:43;;;;;;;9.05;4.93;;;;;;;7.07;79.31;100167.03;5058585;28;20071;-55
2023/04/15 06:43:09;;;;;;;14.77;6.05;;;;;;;7.11;79.33;100178.25;5039778;28;20122;-51
2023/04/15 06:45:36;;;;;;;13.32;6.43;;;;;;;7.14;79.67;100178.31;5061441;28;20044;-53
2023/04/15 06:48:03;;;;;;;12.75;4.40;;;;;;;7.18;78.90;100185.22;5061850;28;20989;-53
2023/04/15 06:50:29;;;;;;;14.65;6.85;;;;;;;7.23;77.87;100177.53;5056922;28;20135;-51
2023/04/15 06:52:56;;;;;;;10.23;5.32;;;;;;;7.23;79.30;100184.41;5060826;28;20072;-52
2023/04/15 06:55:22;;;;;;;15.15;7.03;;;;;;;7.28;79.39;100185.31;5063981;28;20048;-54
2023/04/15 06:57:49;;;;;;;10.98;5.78;;;;;;;7.32;78.60;100192.25;5052590;28;20049;-53
2023/04/15 07:00:16;;;;;;;13.70;6.78;;;;;;;7.34;78.25;100198.31;5054512;28;20056;-54
2023/04/15 07:02:43;;;;;;;12.52;6.38;;;;;;;7.37;77.96;100205.22;5057828;28;20061;-54
2023/04/15 07:05:10;;;;;;;12.27;6.10;;;;;;;7.39;78.92;100208.66;5054432;28;20048;-54
2023/04/15 07:07:37;;;;;;;17.92;8.10;;;;;;;7.43;77.99;100223.34;5050799;28;20102;-53
2023/04/15 07:10:04;;;;;;;11.63;6.60;;;;;;;7.43;78.77;100224.19;5050165;28;20136;-55
2023/04/15 07:12:30;;;;;;;13.40;5.68;;;;;;;7.46;78.04;100231.97;5054534;28;20384;-51
2023/04/15 07:14:57;;;;;;;11.82;6.70;;;;;;;7.45;78.00;100237.97;5056058;28;20040;-49
2023/04/15 07:17:24;;;;;;;14.10;6.82;;;;;;;7.50;78.51;100243.16;5057169;28;20812;-48
2023/04/15 07:19:50;;;;;;;13.85;7.63;;;;;;;7.55;77.15;100245.81;5056272;28;20044;-58
2023/04/15 07:22:17;;;;;;;17.92;8.23;;;;;;;7.56;78.49;100242.38;5053215;28;20128;-53
2023/04/15 07:24:45;;;;;;;20.58;8.15;;;;;;;7.60;77.43;100254.44;5058067;28;20041;-55
2023/04/15 07:27:11;;;;;;;15.57;7.93;;;;;;;7.63;77.56;100259.66;5044257;28;20133;-54
2023/04/15 07:29:38;;;;;;;17.67;8.05;;;;;;;7.67;78.35;100261.44;5059413;28;20086;-54
2023/04/15 07:32:05;;;;;;;17.77;8.48;;;;;;;7.72;77.94;100259.78;5061629;28;20041;-52
2023/04/15 07:34:31;;;;;;;15.50;7.40;;;;;;;7.75;78.33;100268.41;5052813;28;20413;-53
2023/04/15 07:36:58;;;;;;;17.35;7.90;;;;;;;7.84;77.20;100264.22;5057356;28;20045;-50
2023/04/15 07:39:25;;;;;;;19.05;8.10;;;;;;;7.89;77.83;100287.50;5057119;28;20072;-57
2023/04/15 07:41:51;;;;;;;16.50;8.00;;;;;;;7.92;77.68;100277.22;5054601;28;20118;-49
2023/04/15 07:44:18;;;;;;;15.50;7.40;;;;;;;7.97;77.17;100288.44;5063894;28;20110;-56
2023/04/15 07:46:44;;;;;;;13.43;6.13;;;;;;;7.97;77.23;100291.03;5058430;28;20391;-53
2023/04/15 07:49:12;;;;;;;15.98;8.13;;;;;;;7.97;76.87;100306.50;5061736;28;20044;-54
2023/04/15 07:51:38;;;;;;;14.90;7.68;;;;;;;7.98;76.89;100313.38;5058853;28;20106;-52
2023/04/15 07:54:05;;;;;;;17.00;8.40;;;;;;;8.02;77.33;100310.84;5062087;28;20080;-54
2023/04/15 07:56:32;;;;;;;16.30;8.00;;;;;;;8.03;76.59;100328.03;5055858;28;20083;-50
2023/04/15 07:59:00;;;;;;;15.63;8.63;;;;;;;8.04;77.02;100327.22;5052060;28;20048;-53
2023/04/15 08:01:27;;;;;;;14.25;7.03;;;;;;;8.03;76.36;100336.66;5052881;28;20076;-54
2023/04/15 08:03:54;;;;;;;14.77;7.57;;;;;;;8.02;76.24;100334.06;5057856;28;20084;-53
2023/04/15 08:06:21;;;;;;;10.13;5.65;;;;;;;8.00;76.18;100335.78;5052052;28;20044;-50
2023/04/15 08:08:48;;;;;;;13.98;6.93;;;;;;;8.01;76.60;100332.34;5054848;28;20052;-51
2023/04/15 08:11:15;;;;;;;10.52;4.80;;;;;;;8.00;77.07;100338.34;5057157;28;20072;-50
2023/04/15 08:13:41;;;;;;;12.65;6.57;;;;;;;8.02;76.28;100339.22;5051614;28;20052;-55
2023/04/15 08:16:26;;;;;;;12.63;6.38;;;;;;;8.05;76.11;100349.59;5060343;28;20090;-56
2023/04/15 08:18:55;;;;;;;10.85;5.63;;;;;;;8.08;76.79;100349.63;5030710;28;20070;-57
2023/04/15 08:21:22;;;;;;;13.00;6.13;;;;;;;8.12;77.32;100351.41;5055751;28;20577;-54
2023/04/15 08:23:51;;;;;;;12.30;6.20;;;;;;;8.13;76.87;100358.28;5055174;28;20052;-53
2023/04/15 08:26:18;;;;;;;14.20;6.75;;;;;;;8.15;76.23;100356.59;5051366;28;20484;-53
2023/04/15 08:28:45;;;;;;;13.73;6.50;;;;;;;8.16;76.02;100362.59;5055643;28;20045;-51
2023/04/15 08:31:14;;;;;;;15.02;5.72;;;;;;;8.19;76.77;100363.53;5037041;28;20044;-52
2023/04/15 08:33:41;;;;;;;15.18;5.32;;;;;;;8.25;76.30;100367.03;5035379;28;20680;-53
2023/04/15 08:36:08;;;;;;;12.88;7.07;;;;;;;8.29;77.08;100373.94;5060280;28;20048;-52
2023/04/15 08:38:35;;;;;;;13.05;6.78;;;;;;;8.32;76.03;100381.72;5060206;28;20048;-54
2023/04/15 08:41:06;;;;;;;11.65;5.22;;;;;;;8.35;76.08;100384.34;5038732;28;20568;-51
2023/04/15 08:43:34;;;;;;;10.85;6.22;;;;;;;8.40;76.46;100392.13;5033210;28;20049;-55
2023/04/15 08:46:03;;;;;;;20.30;7.78;;;;;;;8.43;76.31;100398.22;5059878;28;20044;-53
2023/04/15 08:48:32;;;;;;;11.93;6.68;;;;;;;8.48;76.65;100400.84;5062696;28;20063;-56
2023/04/15 08:50:59;;;;;;;12.48;6.75;;;;;;;8.53;76.39;100398.31;5059905;28;20079;-52
2023/04/15 08:53:28;;;;;;;11.88;6.57;;;;;;;8.53;76.44;100403.47;5057071;28;20052;-54
2023/04/15 08:55:58;;;;;;;9.63;5.28;;;;;;;8.55;75.64;100412.16;5059311;28;20056;-54
2023/04/15 08:58:25;;;;;;;10.80;5.60;;;;;;;8.55;76.17;100417.31;5041266;28;20167;-53
2023/04/15 09:00:52;;;;;;;9.30;4.68;;;;;;;8.54;75.65;100420.75;5059381;28;20161;-55
2023/04/15 09:03:20;;;;;;;11.93;4.95;;;;;;;8.47;75.85;100419.75;5065283;28;20497;-49
2023/04/15 09:05:47;;;;;;;13.18;5.78;;;;;;;8.47;76.01;100425.78;5059615;28;20551;-54
2023/04/15 09:08:14;;;;;;;11.95;6.22;;;;;;;8.48;76.02;100430.09;5059282;28;20097;-52
2023/04/15 09:10:41;;;;;;;14.63;6.72;;;;;;;8.49;75.55;100434.41;5065741;28;20468;-51
2023/04/15 09:13:08;;;;;;;12.27;5.80;;;;;;;8.54;75.48;100436.25;5060634;28;20530;-53
2023/04/15 09:15:37;;;;;;;14.55;6.68;;;;;;;8.58;75.90;100438.00;5064200;28;20123;-55
2023/04/15 09:18:04;;;;;;;11.57;6.78;;;;;;;8.64;75.52;100443.22;5062094;28;20053;-55
2023/04/15 09:20:40;;;;;;;11.13;5.95;;;;;;;8.71;76.31;100445.03;5040439;28;20081;-54
2023/04/15 09:23:16;;;;;;;8.48;5.43;;;;;;;8.82;75.55;100446.88;5059725;28;20118;-54
2023/04/15 09:25:43;;;;;;;11.07;5.97;;;;;;;9.00;75.56;100453.94;5060413;28;20044;-54
2023/04/15 09:28:10;;;;;;;10.18;6.65;;;;;;;9.16;75.56;100456.69;5063494;28;20133;-53
2023/04/15 09:30:36;;;;;;;13.30;6.40;;;;;;;9.33;75.28;100460.31;5062512;28;20118;-53
2023/04/15 09:33:07;;;;;;;10.98;5.68;;;;;;;9.50;74.82;100457.84;5048314;28;20078;-57
2023/04/15 09:35:35;;;;;;;10.45;5.57;;;;;;;9.55;74.58;100462.22;5063502;28;20044;-53
2023/04/15 09:38:06;;;;;;;10.55;5.80;;;;;;;9.61;74.31;100470.00;5066043;28;20079;-54
2023/04/15 09:43:11;;;;;;;9.88;5.05;;;;;;;9.91;74.09;100478.84;5121887;27;20383;-53
2023/04/15 09:45:45;;;;;;;10.05;4.68;;;;;;;10.10;73.74;100492.78;5105295;27;20046;-54
2023/04/15 09:50:53;;;;;;;7.72;3.72;;;;;;;10.78;73.43;100504.38;5048233;27;20402;-58
2023/04/15 09:53:22;;;;;;;11.18;5.05;;;;;;;10.89;73.21;100514.78;5022348;28;20067;-55
2023/04/15 09:55:54;;;;;;;10.77;5.95;;;;;;;11.06;72.38;100514.84;5022654;28;20556;-52
2023/04/15 09:58:23;;;;;;;10.00;4.20;;;;;;;11.23;72.46;100506.22;5020144;28;20057;-55
2023/04/15 10:00:51;;;;;;;8.38;4.80;;;;;;;11.26;71.22;100512.28;5021139;28;20089;-55
2023/04/15 10:03:20;;;;;;;7.30;4.15;;;;;;;11.30;71.27;100513.16;5022565;28;20104;-56
2023/04/15 10:05:50;;;;;;;8.20;4.55;;;;;;;11.37;71.56;100503.66;5031458;28;20041;-52
2023/04/15 10:08:20;;;;;;;10.07;5.30;;;;;;;11.49;71.49;100503.69;5075150;28;20077;-56
2023/04/15 10:10:47;;;;;;;8.82;4.50;;;;;;;11.62;70.89;100499.34;5041888;28;20099;-55
2023/04/15 10:13:17;;;;;;;9.20;4.68;;;;;;;11.76;70.32;100501.94;5043318;28;20052;-55
2023/04/15 10:15:56;;;;;;;7.57;4.25;;;;;;;11.94;70.57;100511.47;5042046;28;20041;-59
2023/04/15 10:18:26;;;;;;;8.07;4.35;;;;;;;12.14;71.23;100512.31;5037621;28;20115;-58
2023/04/15 10:20:54;;;;;;;6.63;3.80;;;;;;;12.27;70.34;100527.03;5037926;28;20242;-56
2023/04/15 10:23:22;;;;;;;9.07;4.13;;;;;;;12.52;70.55;100528.66;5032737;28;20131;-57
2023/04/15 10:25:51;;;;;;;11.85;5.28;;;;;;;12.83;70.73;100534.63;5029759;28;20077;-54
2023/04/15 10:28:19;;;;;;;10.13;4.57;;;;;;;13.10;69.73;100532.75;5063652;28;20048;-54
2023/04/15 10:30:47;;;;;;;7.32;4.50;;;;;;;13.15;67.74;100534.47;5062381;28;20069;-57
2023/04/15 10:33:16;;;;;;;10.32;4.32;;;;;;;13.06;68.05;100541.47;5033395;28;20076;-54
2023/04/15 10:35:43;;;;;;;9.40;4.88;;;;;;;13.07;67.55;100545.78;5030929;28;20065;-57
2023/04/15 10:41:30;;;;;;;12.32;6.45;;;;;;;13.00;66.89;100553.63;5047001;28;20413;-55
2023/04/15 10:44:02;;;;;;;7.95;5.68;;;;;;;12.98;66.72;100558.84;5017884;28;20514;-58
2023/04/15 10:46:38;;;;;;;9.40;6.63;;;;;;;13.03;67.11;100564.03;5010697;28;20515;-54
2023/04/15 10:49:12;;;;;;;8.38;6.18;;;;;;;13.06;66.47;100566.59;5013817;28;20046;-55
2023/04/15 10:51:42;;;;;;;9.27;5.80;;;;;;;13.02;66.22;100570.94;5006627;28;20148;-58
2023/04/15 11:05:51;;;;;;;9.07;5.22;;;;;;;12.97;66.48;100589.16;5047283;27;20739;-55
2023/04/15 11:08:38;;;;;;;8.57;4.05;;;;;;;13.04;66.17;100578.75;5021135;28;20046;-58
2023/04/15 11:11:04;;;;;;;9.95;4.65;;;;;;;13.05;66.55;100580.47;5016122;28;20132;-56
2023/04/15 11:13:32;;;;;;;7.05;4.18;;;;;;;13.11;65.57;100583.06;5022433;28;20069;-58
2023/04/15 11:16:00;;;;;;;8.90;4.50;;;;;;;13.18;66.65;100596.88;5023209;28;20058;-57
2023/04/15 11:18:29;;;;;;;9.43;4.63;;;;;;;13.21;65.01;100596.88;5016588;28;20053;-56
2023/04/15 11:20:59;;;;;;;8.68;4.38;;;;;;;13.25;65.41;100596.00;5021697;28;20049;-56
2023/04/15 11:23:38;;;;;;;6.75;3.78;;;;;;;13.31;65.07;100602.91;5021814;28;20497;-55
2023/04/15 11:26:10;;;;;;;8.30;3.97;;;;;;;13.39;65.32;100600.25;5023883;28;20073;-58
2023/04/15 11:28:39;;;;;;;7.75;3.85;;;;;;;13.39;65.23;100608.03;5020172;28;20053;-55
2023/04/15 11:31:10;;;;;;;8.50;4.05;;;;;;;13.43;65.13;100617.56;5003210;28;20100;-56
2023/04/15 11:33:38;;;;;;;8.63;4.75;;;;;;;13.51;65.31;100623.63;5001689;28;20512;-59
2023/04/15 11:36:05;;;;;;;7.30;4.00;;;;;;;13.57;65.32;100620.09;5020186;28;20127;-57
2023/04/15 11:38:33;;;;;;;8.32;4.80;;;;;;;13.58;65.24;100627.91;5021916;28;20134;-57
2023/04/15 11:41:00;;;;;;;8.45;4.10;;;;;;;13.64;64.59;100626.16;5021357;28;20054;-55
2023/04/15 11:43:26;;;;;;;7.68;3.90;;;;;;;13.67;64.95;100628.72;5019670;28;20563;-56
2023/04/15 11:45:56;;;;;;;8.48;4.55;;;;;;;13.69;64.07;100634.81;5017015;28;20081;-59
2023/04/15 11:48:25;;;;;;;7.70;4.57;;;;;;;13.75;63.58;100632.16;5019681;28;20067;-57
2023/04/15 11:50:56;;;;;;;9.15;4.95;;;;;;;13.87;64.05;100642.50;5020913;28;20049;-59
2023/04/15 11:53:23;;;;;;;9.10;4.40;;;;;;;13.94;64.42;100645.03;5012412;28;20050;-56